sensor_id;sensor_type;location;lat;lon;timestamp;P1;durP1;ratioP1;P2;durP2;ratioP2
1140;SDS011;559;48.628;8.924;2023-10-08T00:00:45;5.73;;;3.70;;
1140;SDS011;559;48.628;8.924;2023-10-08T00:03:12;5.80;;;3.97;;
1140;SDS011;559;48.628;8.924;2023-10-08T00:05:39;6.07;;;3.90;;
1140;SDS011;559;48.628;8.924;2023-10-08T00:08:07;5.43;;;4.03;;
1140;SDS011;559;48.628;8.924;2023-10-08T00:10:37;5.30;;;4.37;;
1140;SDS011;559;48.628;8.924;2023-10-08T00:13:06;5.83;;;4.00;;
1140;SDS011;559;48.628;8.924;2023-10-08T00:15:40;5.33;;;4.10;;
1140;SDS011;559;48.628;8.924;2023-10-08T00:18:20;6.13;;;4.63;;
1140;SDS011;559;48.628;8.924;2023-10-08T00:20:55;6.20;;;3.80;;
1140;SDS011;559;48.628;8.924;2023-10-08T00:23:48;4.90;;;4.15;;
1140;SDS011;559;48.628;8.924;2023-10-08T00:26:27;4.70;;;3.70;;
1140;SDS011;559;48.628;8.924;2023-10-08T00:28:58;6.67;;;4.60;;
1140;SDS011;559;48.628;8.924;2023-10-08T00:31:26;5.47;;;4.03;;
1140;SDS011;559;48.628;8.924;2023-10-08T00:33:57;6.47;;;3.93;;
1140;SDS011;559;48.628;8.924;2023-10-08T00:36:24;5.80;;;4.40;;
1140;SDS011;559;48.628;8.924;2023-10-08T00:39:08;4.80;;;4.03;;
1140;SDS011;559;48.628;8.924;2023-10-08T00:41:49;6.43;;;4.90;;
1140;SDS011;559;48.628;8.924;2023-10-08T00:44:23;5.70;;;5.20;;
1140;SDS011;559;48.628;8.924;2023-10-08T00:47:06;7.83;;;4.53;;
1140;SDS011;559;48.628;8.924;2023-10-08T00:49:37;5.23;;;3.70;;
1140;SDS011;559;48.628;8.924;2023-10-08T00:52:13;3.90;;;2.80;;
1140;SDS011;559;48.628;8.924;2023-10-08T00:54:54;4.73;;;2.70;;
1140;SDS011;559;48.628;8.924;2023-10-08T00:57:33;4.73;;;3.33;;
1140;SDS011;559;48.628;8.924;2023-10-08T01:00:02;7.53;;;3.40;;
1140;SDS011;559;48.628;8.924;2023-10-08T01:02:31;8.00;;;3.17;;
1140;SDS011;559;48.628;8.924;2023-10-08T01:05:11;4.53;;;3.00;;
1140;SDS011;559;48.628;8.924;2023-10-08T01:07:39;5.97;;;3.37;;
1140;SDS011;559;48.628;8.924;2023-10-08T01:10:09;7.00;;;3.93;;
1140;SDS011;559;48.628;8.924;2023-10-08T01:12:38;7.20;;;3.00;;
1140;SDS011;559;48.628;8.924;2023-10-08T01:15:14;5.00;;;3.20;;
1140;SDS011;559;48.628;8.924;2023-10-08T01:17:48;5.00;;;2.67;;
1140;SDS011;559;48.628;8.924;2023-10-08T01:20:24;4.40;;;3.30;;
1140;SDS011;559;48.628;8.924;2023-10-08T01:23:04;8.03;;;3.00;;
1140;SDS011;559;48.628;8.924;2023-10-08T01:25:34;5.57;;;3.40;;
1140;SDS011;559;48.628;8.924;2023-10-08T01:28:02;6.47;;;3.17;;
1140;SDS011;559;48.628;8.924;2023-10-08T01:30:40;4.07;;;2.90;;
1140;SDS011;559;48.628;8.924;2023-10-08T01:33:08;4.67;;;3.03;;
1140;SDS011;559;48.628;8.924;2023-10-08T01:35:38;5.17;;;2.80;;
1140;SDS011;559;48.628;8.924;2023-10-08T01:38:06;4.80;;;2.50;;
1140;SDS011;559;48.628;8.924;2023-10-08T01:40:34;5.93;;;3.13;;
1140;SDS011;559;48.628;8.924;2023-10-08T01:43:00;5.53;;;3.90;;
1140;SDS011;559;48.628;8.924;2023-10-08T01:45:29;7.10;;;3.93;;
1140;SDS011;559;48.628;8.924;2023-10-08T01:47:57;7.30;;;4.20;;
1140;SDS011;559;48.628;8.924;2023-10-08T01:50:23;4.90;;;2.80;;
1140;SDS011;559;48.628;8.924;2023-10-08T01:52:50;4.60;;;3.03;;
1140;SDS011;559;48.628;8.924;2023-10-08T01:55:19;3.70;;;3.17;;
1140;SDS011;559;48.628;8.924;2023-10-08T01:57:47;3.60;;;1.90;;
1140;SDS011;559;48.628;8.924;2023-10-08T02:00:16;6.77;;;3.10;;
1140;SDS011;559;48.628;8.924;2023-10-08T02:02:44;6.03;;;3.30;;
1140;SDS011;559;48.628;8.924;2023-10-08T02:05:12;6.07;;;2.73;;
1140;SDS011;559;48.628;8.924;2023-10-08T02:07:40;5.50;;;2.40;;
1140;SDS011;559;48.628;8.924;2023-10-08T02:10:07;6.30;;;3.03;;
1140;SDS011;559;48.628;8.924;2023-10-08T02:12:37;4.10;;;2.73;;
1140;SDS011;559;48.628;8.924;2023-10-08T02:15:04;5.73;;;3.20;;
1140;SDS011;559;48.628;8.924;2023-10-08T02:17:32;4.67;;;2.70;;
1140;SDS011;559;48.628;8.924;2023-10-08T02:19:58;4.50;;;2.67;;
1140;SDS011;559;48.628;8.924;2023-10-08T02:22:25;5.97;;;2.70;;
1140;SDS011;559;48.628;8.924;2023-10-08T02:24:52;3.70;;;2.50;;
1140;SDS011;559;48.628;8.924;2023-10-08T02:27:26;7.03;;;3.47;;
1140;SDS011;559;48.628;8.924;2023-10-08T02:29:54;4.40;;;2.87;;
1140;SDS011;559;48.628;8.924;2023-10-08T02:32:20;4.70;;;2.43;;
1140;SDS011;559;48.628;8.924;2023-10-08T02:34:47;5.17;;;2.73;;
1140;SDS011;559;48.628;8.924;2023-10-08T02:37:14;6.80;;;3.13;;
1140;SDS011;559;48.628;8.924;2023-10-08T02:39:41;3.03;;;2.40;;
1140;SDS011;559;48.628;8.924;2023-10-08T02:42:09;5.87;;;3.47;;
1140;SDS011;559;48.628;8.924;2023-10-08T02:44:39;5.53;;;3.17;;
1140;SDS011;559;48.628;8.924;2023-10-08T02:47:08;8.03;;;3.03;;
1140;SDS011;559;48.628;8.924;2023-10-08T02:49:37;4.30;;;3.00;;
1140;SDS011;559;48.628;8.924;2023-10-08T02:52:05;4.77;;;3.13;;
1140;SDS011;559;48.628;8.924;2023-10-08T02:54:33;5.60;;;2.97;;
1140;SDS011;559;48.628;8.924;2023-10-08T02:57:01;8.90;;;3.20;;
1140;SDS011;559;48.628;8.924;2023-10-08T02:59:29;5.30;;;3.67;;
1140;SDS011;559;48.628;8.924;2023-10-08T03:02:04;4.97;;;2.97;;
1140;SDS011;559;48.628;8.924;2023-10-08T03:04:39;9.80;;;3.80;;
1140;SDS011;559;48.628;8.924;2023-10-08T03:07:06;4.72;;;4.32;;
1140;SDS011;559;48.628;8.924;2023-10-08T03:09:37;6.30;;;5.90;;
1140;SDS011;559;48.628;8.924;2023-10-08T03:12:07;9.55;;;8.75;;
1140;SDS011;559;48.628;8.924;2023-10-08T03:14:34;10.20;;;9.45;;
1140;SDS011;559;48.628;8.924;2023-10-08T03:17:13;10.63;;;9.82;;
1140;SDS011;559;48.628;8.924;2023-10-08T03:19:46;9.65;;;8.70;;
1140;SDS011;559;48.628;8.924;2023-10-08T03:22:14;9.23;;;7.95;;
1140;SDS011;559;48.628;8.924;2023-10-08T03:24:44;9.40;;;8.70;;
1140;SDS011;559;48.628;8.924;2023-10-08T03:27:13;8.43;;;7.82;;
1140;SDS011;559;48.628;8.924;2023-10-08T03:29:45;7.63;;;7.22;;
1140;SDS011;559;48.628;8.924;2023-10-08T03:32:13;10.15;;;9.45;;
1140;SDS011;559;48.628;8.924;2023-10-08T03:34:43;11.40;;;10.63;;
1140;SDS011;559;48.628;8.924;2023-10-08T03:37:14;11.48;;;10.88;;
1140;SDS011;559;48.628;8.924;2023-10-08T03:39:46;11.98;;;10.88;;
1140;SDS011;559;48.628;8.924;2023-10-08T03:42:25;13.65;;;12.23;;
1140;SDS011;559;48.628;8.924;2023-10-08T03:44:58;14.27;;;13.32;;
1140;SDS011;559;48.628;8.924;2023-10-08T03:47:34;15.32;;;14.45;;
1140;SDS011;559;48.628;8.924;2023-10-08T03:50:03;18.35;;;17.55;;
1140;SDS011;559;48.628;8.924;2023-10-08T03:52:32;19.15;;;18.25;;
1140;SDS011;559;48.628;8.924;2023-10-08T03:55:02;20.25;;;19.17;;
1140;SDS011;559;48.628;8.924;2023-10-08T03:57:39;26.13;;;24.92;;
1140;SDS011;559;48.628;8.924;2023-10-08T04:00:13;23.17;;;22.08;;
1140;SDS011;559;48.628;8.924;2023-10-08T04:02:44;20.83;;;19.92;;
1140;SDS011;559;48.628;8.924;2023-10-08T04:05:20;23.15;;;22.20;;
1140;SDS011;559;48.628;8.924;2023-10-08T04:07:53;23.33;;;22.33;;
1140;SDS011;559;48.628;8.924;2023-10-08T04:10:42;26.27;;;25.08;;
1140;SDS011;559;48.628;8.924;2023-10-08T04:13:26;34.88;;;33.38;;
1140;SDS011;559;48.628;8.924;2023-10-08T04:15:53;43.67;;;41.97;;
1140;SDS011;559;48.628;8.924;2023-10-08T04:18:20;58.20;;;56.25;;
1140;SDS011;559;48.628;8.924;2023-10-08T04:20:46;59.20;;;56.03;;
1140;SDS011;559;48.628;8.924;2023-10-08T04:23:26;60.45;;;58.40;;
1140;SDS011;559;48.628;8.924;2023-10-08T04:25:54;65.50;;;63.30;;
1140;SDS011;559;48.628;8.924;2023-10-08T04:28:22;67.60;;;65.45;;
1140;SDS011;559;48.628;8.924;2023-10-08T04:30:53;68.45;;;66.05;;
1140;SDS011;559;48.628;8.924;2023-10-08T04:33:26;66.75;;;64.63;;
1140;SDS011;559;48.628;8.924;2023-10-08T04:35:55;66.15;;;63.80;;
1140;SDS011;559;48.628;8.924;2023-10-08T04:38:28;64.35;;;62.35;;
1140;SDS011;559;48.628;8.924;2023-10-08T04:40:56;65.57;;;63.38;;
1140;SDS011;559;48.628;8.924;2023-10-08T04:43:27;65.78;;;63.58;;
1140;SDS011;559;48.628;8.924;2023-10-08T04:45:55;68.90;;;66.60;;
1140;SDS011;559;48.628;8.924;2023-10-08T04:48:22;67.95;;;65.88;;
1140;SDS011;559;48.628;8.924;2023-10-08T04:50:50;68.50;;;66.40;;
1140;SDS011;559;48.628;8.924;2023-10-08T04:53:24;69.93;;;67.75;;
1140;SDS011;559;48.628;8.924;2023-10-08T04:55:59;73.80;;;71.38;;
1140;SDS011;559;48.628;8.924;2023-10-08T04:58:31;71.60;;;69.40;;
1140;SDS011;559;48.628;8.924;2023-10-08T05:01:01;73.10;;;70.70;;
1140;SDS011;559;48.628;8.924;2023-10-08T05:03:56;73.07;;;70.67;;
1140;SDS011;559;48.628;8.924;2023-10-08T05:07:01;70.53;;;67.93;;
1140;SDS011;559;48.628;8.924;2023-10-08T05:09:55;74.28;;;71.88;;
1140;SDS011;559;48.628;8.924;2023-10-08T05:12:49;76.57;;;74.28;;
1140;SDS011;559;48.628;8.924;2023-10-08T05:15:26;85.32;;;82.63;;
1140;SDS011;559;48.628;8.924;2023-10-08T05:18:02;93.40;;;90.25;;
1140;SDS011;559;48.628;8.924;2023-10-08T05:20:39;95.28;;;92.38;;
1140;SDS011;559;48.628;8.924;2023-10-08T05:23:27;103.32;;;100.03;;
1140;SDS011;559;48.628;8.924;2023-10-08T05:26:18;100.45;;;96.78;;
1140;SDS011;559;48.628;8.924;2023-10-08T05:28:57;97.03;;;93.88;;
1140;SDS011;559;48.628;8.924;2023-10-08T05:31:49;102.43;;;99.03;;
1140;SDS011;559;48.628;8.924;2023-10-08T05:34:38;96.00;;;93.10;;
1140;SDS011;559;48.628;8.924;2023-10-08T05:37:16;95.38;;;92.38;;
1140;SDS011;559;48.628;8.924;2023-10-08T05:39:58;104.88;;;101.07;;
1140;SDS011;559;48.628;8.924;2023-10-08T05:42:46;102.53;;;98.85;;
1140;SDS011;559;48.628;8.924;2023-10-08T05:45:15;108.82;;;105.10;;
1140;SDS011;559;48.628;8.924;2023-10-08T05:47:54;110.47;;;106.38;;
1140;SDS011;559;48.628;8.924;2023-10-08T05:50:38;111.85;;;107.93;;
1140;SDS011;559;48.628;8.924;2023-10-08T05:53:08;116.88;;;112.57;;
1140;SDS011;559;48.628;8.924;2023-10-08T05:55:44;113.38;;;109.47;;
1140;SDS011;559;48.628;8.924;2023-10-08T05:58:26;112.90;;;108.80;;
1140;SDS011;559;48.628;8.924;2023-10-08T06:01:01;111.70;;;107.75;;
1140;SDS011;559;48.628;8.924;2023-10-08T06:03:33;118.18;;;113.45;;
1140;SDS011;559;48.628;8.924;2023-10-08T06:06:05;115.32;;;111.22;;
1140;SDS011;559;48.628;8.924;2023-10-08T06:08:49;113.63;;;109.55;;
1140;SDS011;559;48.628;8.924;2023-10-08T06:11:17;115.97;;;111.82;;
1140;SDS011;559;48.628;8.924;2023-10-08T06:14:02;112.82;;;108.72;;
1140;SDS011;559;48.628;8.924;2023-10-08T06:16:39;114.68;;;110.38;;
1140;SDS011;559;48.628;8.924;2023-10-08T06:19:11;113.60;;;109.57;;
1140;SDS011;559;48.628;8.924;2023-10-08T06:21:38;115.93;;;111.50;;
1140;SDS011;559;48.628;8.924;2023-10-08T06:24:05;120.60;;;116.10;;
1140;SDS011;559;48.628;8.924;2023-10-08T06:26:37;116.88;;;112.18;;
1140;SDS011;559;48.628;8.924;2023-10-08T06:29:07;117.68;;;112.90;;
1140;SDS011;559;48.628;8.924;2023-10-08T06:31:45;123.60;;;118.95;;
1140;SDS011;559;48.628;8.924;2023-10-08T06:34:16;119.15;;;114.47;;
1140;SDS011;559;48.628;8.924;2023-10-08T06:36:46;117.25;;;112.95;;
1140;SDS011;559;48.628;8.924;2023-10-08T06:39:13;113.72;;;109.35;;
1140;SDS011;559;48.628;8.924;2023-10-08T06:41:44;114.15;;;109.88;;
1140;SDS011;559;48.628;8.924;2023-10-08T06:44:11;112.60;;;108.38;;
1140;SDS011;559;48.628;8.924;2023-10-08T06:46:40;109.88;;;105.70;;
1140;SDS011;559;48.628;8.924;2023-10-08T06:49:08;109.90;;;105.90;;
1140;SDS011;559;48.628;8.924;2023-10-08T06:51:38;108.93;;;104.60;;
1140;SDS011;559;48.628;8.924;2023-10-08T06:54:04;106.20;;;102.50;;
1140;SDS011;559;48.628;8.924;2023-10-08T06:56:35;102.65;;;98.85;;
1140;SDS011;559;48.628;8.924;2023-10-08T06:59:01;100.47;;;96.95;;
1140;SDS011;559;48.628;8.924;2023-10-08T07:01:28;98.55;;;95.35;;
1140;SDS011;559;48.628;8.924;2023-10-08T07:04:04;102.07;;;98.22;;
1140;SDS011;559;48.628;8.924;2023-10-08T07:06:32;97.57;;;93.30;;
1140;SDS011;559;48.628;8.924;2023-10-08T07:09:02;97.50;;;94.10;;
1140;SDS011;559;48.628;8.924;2023-10-08T07:11:30;100.60;;;96.80;;
1140;SDS011;559;48.628;8.924;2023-10-08T07:14:00;105.68;;;101.72;;
1140;SDS011;559;48.628;8.924;2023-10-08T07:16:26;108.00;;;103.70;;
1140;SDS011;559;48.628;8.924;2023-10-08T07:18:53;108.07;;;104.03;;
1140;SDS011;559;48.628;8.924;2023-10-08T07:21:26;114.93;;;110.40;;
1140;SDS011;559;48.628;8.924;2023-10-08T07:23:56;112.70;;;107.57;;
1140;SDS011;559;48.628;8.924;2023-10-08T07:26:24;112.03;;;107.35;;
1140;SDS011;559;48.628;8.924;2023-10-08T07:29:01;116.78;;;112.32;;
1140;SDS011;559;48.628;8.924;2023-10-08T07:31:30;103.07;;;99.78;;
1140;SDS011;559;48.628;8.924;2023-10-08T07:33:59;69.50;;;67.37;;
1140;SDS011;559;48.628;8.924;2023-10-08T07:36:40;46.10;;;44.13;;
1140;SDS011;559;48.628;8.924;2023-10-08T07:39:09;28.57;;;27.23;;
1140;SDS011;559;48.628;8.924;2023-10-08T07:41:50;18.63;;;17.83;;
1140;SDS011;559;48.628;8.924;2023-10-08T07:44:19;12.23;;;11.43;;
1140;SDS011;559;48.628;8.924;2023-10-08T07:46:46;10.90;;;9.90;;
1140;SDS011;559;48.628;8.924;2023-10-08T07:49:13;9.23;;;7.77;;
1140;SDS011;559;48.628;8.924;2023-10-08T07:51:40;7.90;;;6.97;;
1140;SDS011;559;48.628;8.924;2023-10-08T07:54:10;7.57;;;6.90;;
1140;SDS011;559;48.628;8.924;2023-10-08T07:56:41;6.40;;;5.80;;
1140;SDS011;559;48.628;8.924;2023-10-08T07:59:08;6.00;;;5.70;;
1140;SDS011;559;48.628;8.924;2023-10-08T08:01:38;6.77;;;6.37;;
1140;SDS011;559;48.628;8.924;2023-10-08T08:04:06;5.97;;;5.57;;
1140;SDS011;559;48.628;8.924;2023-10-08T08:06:35;6.80;;;5.83;;
1140;SDS011;559;48.628;8.924;2023-10-08T08:09:02;4.90;;;4.60;;
1140;SDS011;559;48.628;8.924;2023-10-08T08:11:34;6.70;;;5.30;;
1140;SDS011;559;48.628;8.924;2023-10-08T08:14:02;7.17;;;6.47;;
1140;SDS011;559;48.628;8.924;2023-10-08T08:16:33;7.13;;;6.53;;
1140;SDS011;559;48.628;8.924;2023-10-08T08:19:02;8.30;;;5.30;;
1140;SDS011;559;48.628;8.924;2023-10-08T08:21:28;6.67;;;5.97;;
1140;SDS011;559;48.628;8.924;2023-10-08T08:23:55;6.63;;;5.03;;
1140;SDS011;559;48.628;8.924;2023-10-08T08:26:30;6.50;;;5.90;;
1140;SDS011;559;48.628;8.924;2023-10-08T08:29:06;11.80;;;5.23;;
1140;SDS011;559;48.628;8.924;2023-10-08T08:31:34;5.83;;;5.20;;
1140;SDS011;559;48.628;8.924;2023-10-08T08:34:01;6.63;;;5.80;;
1140;SDS011;559;48.628;8.924;2023-10-08T08:36:33;6.50;;;4.73;;
1140;SDS011;559;48.628;8.924;2023-10-08T08:39:03;5.63;;;5.07;;
1140;SDS011;559;48.628;8.924;2023-10-08T08:41:30;4.80;;;4.40;;
1140;SDS011;559;48.628;8.924;2023-10-08T08:43:58;7.70;;;4.60;;
1140;SDS011;559;48.628;8.924;2023-10-08T08:46:28;5.83;;;4.13;;
1140;SDS011;559;48.628;8.924;2023-10-08T08:48:57;5.57;;;4.30;;
1140;SDS011;559;48.628;8.924;2023-10-08T08:51:26;4.30;;;3.90;;
1140;SDS011;559;48.628;8.924;2023-10-08T08:53:54;5.03;;;4.07;;
1140;SDS011;559;48.628;8.924;2023-10-08T08:56:24;6.63;;;3.60;;
1140;SDS011;559;48.628;8.924;2023-10-08T08:58:52;5.00;;;2.97;;
1140;SDS011;559;48.628;8.924;2023-10-08T09:01:19;8.07;;;3.60;;
1140;SDS011;559;48.628;8.924;2023-10-08T09:03:47;5.07;;;3.13;;
1140;SDS011;559;48.628;8.924;2023-10-08T09:06:15;3.67;;;2.60;;
1140;SDS011;559;48.628;8.924;2023-10-08T09:08:42;4.10;;;2.80;;
1140;SDS011;559;48.628;8.924;2023-10-08T09:11:13;5.40;;;2.93;;
1140;SDS011;559;48.628;8.924;2023-10-08T09:13:41;5.30;;;3.43;;
1140;SDS011;559;48.628;8.924;2023-10-08T09:16:09;4.67;;;2.60;;
1140;SDS011;559;48.628;8.924;2023-10-08T09:18:38;5.23;;;2.90;;
1140;SDS011;559;48.628;8.924;2023-10-08T09:21:09;5.23;;;2.70;;
1140;SDS011;559;48.628;8.924;2023-10-08T09:23:40;5.10;;;3.07;;
1140;SDS011;559;48.628;8.924;2023-10-08T09:26:12;4.87;;;2.67;;
1140;SDS011;559;48.628;8.924;2023-10-08T09:28:39;5.30;;;3.37;;
1140;SDS011;559;48.628;8.924;2023-10-08T09:31:09;5.07;;;2.80;;
1140;SDS011;559;48.628;8.924;2023-10-08T09:33:37;6.03;;;2.97;;
1140;SDS011;559;48.628;8.924;2023-10-08T09:36:04;6.40;;;3.00;;
1140;SDS011;559;48.628;8.924;2023-10-08T09:38:33;5.83;;;2.50;;
1140;SDS011;559;48.628;8.924;2023-10-08T09:41:01;5.00;;;2.50;;
1140;SDS011;559;48.628;8.924;2023-10-08T09:43:28;5.10;;;3.00;;
1140;SDS011;559;48.628;8.924;2023-10-08T09:45:58;4.23;;;2.30;;
1140;SDS011;559;48.628;8.924;2023-10-08T09:48:30;5.57;;;2.30;;
1140;SDS011;559;48.628;8.924;2023-10-08T09:50:57;6.87;;;3.00;;
1140;SDS011;559;48.628;8.924;2023-10-08T09:53:25;8.37;;;3.37;;
1140;SDS011;559;48.628;8.924;2023-10-08T09:55:59;5.80;;;3.13;;
1140;SDS011;559;48.628;8.924;2023-10-08T09:58:26;6.23;;;3.00;;
1140;SDS011;559;48.628;8.924;2023-10-08T10:00:54;5.77;;;3.23;;
1140;SDS011;559;48.628;8.924;2023-10-08T10:03:22;5.47;;;2.93;;
1140;SDS011;559;48.628;8.924;2023-10-08T10:05:51;7.40;;;2.97;;
1140;SDS011;559;48.628;8.924;2023-10-08T10:08:18;11.07;;;3.53;;
1140;SDS011;559;48.628;8.924;2023-10-08T10:10:50;8.83;;;2.97;;
1140;SDS011;559;48.628;8.924;2023-10-08T10:13:27;8.50;;;2.90;;
1140;SDS011;559;48.628;8.924;2023-10-08T10:15:54;7.73;;;3.27;;
1140;SDS011;559;48.628;8.924;2023-10-08T10:18:26;8.73;;;3.20;;
1140;SDS011;559;48.628;8.924;2023-10-08T10:20:56;6.60;;;3.07;;
1140;SDS011;559;48.628;8.924;2023-10-08T10:23:35;8.07;;;3.17;;
1140;SDS011;559;48.628;8.924;2023-10-08T10:26:20;8.40;;;3.07;;
1140;SDS011;559;48.628;8.924;2023-10-08T10:31:51;9.30;;;3.97;;
1140;SDS011;559;48.628;8.924;2023-10-08T10:34:19;7.90;;;4.03;;
1140;SDS011;559;48.628;8.924;2023-10-08T10:36:50;11.73;;;3.40;;
1140;SDS011;559;48.628;8.924;2023-10-08T10:39:21;7.93;;;3.30;;
1140;SDS011;559;48.628;8.924;2023-10-08T10:41:54;9.17;;;3.60;;
1140;SDS011;559;48.628;8.924;2023-10-08T10:44:22;8.20;;;3.30;;
1140;SDS011;559;48.628;8.924;2023-10-08T10:46:49;9.90;;;3.30;;
1140;SDS011;559;48.628;8.924;2023-10-08T10:49:16;5.10;;;3.30;;
1140;SDS011;559;48.628;8.924;2023-10-08T10:51:49;7.30;;;3.70;;
1140;SDS011;559;48.628;8.924;2023-10-08T10:54:22;9.63;;;3.73;;
1140;SDS011;559;48.628;8.924;2023-10-08T10:56:48;10.13;;;3.30;;
1140;SDS011;559;48.628;8.924;2023-10-08T10:59:29;11.30;;;3.70;;
1140;SDS011;559;48.628;8.924;2023-10-08T11:02:02;6.93;;;3.90;;
1140;SDS011;559;48.628;8.924;2023-10-08T11:04:33;11.77;;;3.60;;
1140;SDS011;559;48.628;8.924;2023-10-08T11:07:12;7.10;;;4.07;;
1140;SDS011;559;48.628;8.924;2023-10-08T11:09:43;4.57;;;2.40;;
1140;SDS011;559;48.628;8.924;2023-10-08T11:12:10;4.53;;;2.40;;
1140;SDS011;559;48.628;8.924;2023-10-08T11:14:48;7.70;;;4.10;;
1140;SDS011;559;48.628;8.924;2023-10-08T11:17:22;12.10;;;3.63;;
1140;SDS011;559;48.628;8.924;2023-10-08T11:19:49;9.53;;;3.83;;
1140;SDS011;559;48.628;8.924;2023-10-08T11:22:16;8.17;;;3.57;;
1140;SDS011;559;48.628;8.924;2023-10-08T11:24:44;8.63;;;3.20;;
1140;SDS011;559;48.628;8.924;2023-10-08T11:27:13;8.60;;;4.53;;
1140;SDS011;559;48.628;8.924;2023-10-08T11:29:55;14.63;;;3.53;;
1140;SDS011;559;48.628;8.924;2023-10-08T11:35:05;6.80;;;3.40;;
1140;SDS011;559;48.628;8.924;2023-10-08T11:37:10;8.03;;;3.47;;
1140;SDS011;559;48.628;8.924;2023-10-08T11:42:43;6.87;;;3.43;;
1140;SDS011;559;48.628;8.924;2023-10-08T11:48:14;6.37;;;3.53;;
1140;SDS011;559;48.628;8.924;2023-10-08T11:50:47;12.17;;;3.47;;
1140;SDS011;559;48.628;8.924;2023-10-08T11:53:15;12.77;;;4.17;;
1140;SDS011;559;48.628;8.924;2023-10-08T11:55:44;7.57;;;3.30;;
1140;SDS011;559;48.628;8.924;2023-10-08T11:58:13;9.90;;;3.33;;
1140;SDS011;559;48.628;8.924;2023-10-08T12:00:44;8.63;;;3.63;;
1140;SDS011;559;48.628;8.924;2023-10-08T12:03:11;7.80;;;3.13;;
1140;SDS011;559;48.628;8.924;2023-10-08T12:05:37;8.00;;;3.13;;
1140;SDS011;559;48.628;8.924;2023-10-08T12:08:12;7.03;;;3.63;;
1140;SDS011;559;48.628;8.924;2023-10-08T12:10:39;5.73;;;2.87;;
1140;SDS011;559;48.628;8.924;2023-10-08T12:13:06;9.27;;;3.07;;
1140;SDS011;559;48.628;8.924;2023-10-08T12:15:35;7.40;;;4.23;;
1140;SDS011;559;48.628;8.924;2023-10-08T12:18:05;6.23;;;3.20;;
1140;SDS011;559;48.628;8.924;2023-10-08T12:20:38;11.23;;;4.30;;
1140;SDS011;559;48.628;8.924;2023-10-08T12:23:09;8.97;;;3.63;;
1140;SDS011;559;48.628;8.924;2023-10-08T12:25:35;7.23;;;3.00;;
1140;SDS011;559;48.628;8.924;2023-10-08T12:28:02;8.43;;;3.90;;
1140;SDS011;559;48.628;8.924;2023-10-08T12:30:30;7.30;;;3.67;;
1140;SDS011;559;48.628;8.924;2023-10-08T12:32:57;16.97;;;4.10;;
1140;SDS011;559;48.628;8.924;2023-10-08T12:35:26;13.10;;;3.87;;
1140;SDS011;559;48.628;8.924;2023-10-08T12:37:54;6.43;;;3.27;;
1140;SDS011;559;48.628;8.924;2023-10-08T12:40:21;6.57;;;3.27;;
1140;SDS011;559;48.628;8.924;2023-10-08T12:42:49;9.97;;;3.40;;
1140;SDS011;559;48.628;8.924;2023-10-08T12:45:16;15.70;;;3.87;;
1140;SDS011;559;48.628;8.924;2023-10-08T12:47:46;9.77;;;3.93;;
1140;SDS011;559;48.628;8.924;2023-10-08T12:50:14;12.67;;;4.47;;
1140;SDS011;559;48.628;8.924;2023-10-08T12:52:42;8.33;;;3.90;;
1140;SDS011;559;48.628;8.924;2023-10-08T12:55:17;14.87;;;3.87;;
1140;SDS011;559;48.628;8.924;2023-10-08T12:57:48;8.67;;;3.80;;
1140;SDS011;559;48.628;8.924;2023-10-08T13:00:20;15.53;;;4.17;;
1140;SDS011;559;48.628;8.924;2023-10-08T13:02:48;6.77;;;3.40;;
1140;SDS011;559;48.628;8.924;2023-10-08T13:05:18;10.97;;;4.37;;
1140;SDS011;559;48.628;8.924;2023-10-08T13:07:53;8.43;;;3.50;;
1140;SDS011;559;48.628;8.924;2023-10-08T13:10:21;31.23;;;6.20;;
1140;SDS011;559;48.628;8.924;2023-10-08T13:12:48;7.33;;;4.50;;
1140;SDS011;559;48.628;8.924;2023-10-08T13:15:15;6.87;;;3.50;;
1140;SDS011;559;48.628;8.924;2023-10-08T13:17:43;12.17;;;4.30;;
1140;SDS011;559;48.628;8.924;2023-10-08T13:20:13;7.00;;;3.63;;
1140;SDS011;559;48.628;8.924;2023-10-08T13:22:42;8.27;;;3.60;;
1140;SDS011;559;48.628;8.924;2023-10-08T13:25:11;9.37;;;3.73;;
1140;SDS011;559;48.628;8.924;2023-10-08T13:30:25;7.13;;;3.67;;
1140;SDS011;559;48.628;8.924;2023-10-08T13:32:52;10.53;;;4.20;;
1140;SDS011;559;48.628;8.924;2023-10-08T13:35:19;5.50;;;3.63;;
1140;SDS011;559;48.628;8.924;2023-10-08T13:37:47;4.40;;;2.87;;
1140;SDS011;559;48.628;8.924;2023-10-08T13:40:16;9.40;;;4.03;;
1140;SDS011;559;48.628;8.924;2023-10-08T13:42:42;9.57;;;3.80;;
1140;SDS011;559;48.628;8.924;2023-10-08T13:45:09;6.97;;;3.03;;
1140;SDS011;559;48.628;8.924;2023-10-08T13:47:51;10.33;;;4.37;;
1140;SDS011;559;48.628;8.924;2023-10-08T13:50:18;13.07;;;4.00;;
1140;SDS011;559;48.628;8.924;2023-10-08T13:52:46;7.40;;;3.20;;
1140;SDS011;559;48.628;8.924;2023-10-08T13:55:13;10.30;;;3.83;;
1140;SDS011;559;48.628;8.924;2023-10-08T13:57:43;8.77;;;3.53;;
1140;SDS011;559;48.628;8.924;2023-10-08T14:00:11;9.93;;;3.40;;
1140;SDS011;559;48.628;8.924;2023-10-08T14:02:40;9.60;;;3.50;;
1140;SDS011;559;48.628;8.924;2023-10-08T14:05:07;7.70;;;3.03;;
1140;SDS011;559;48.628;8.924;2023-10-08T14:07:35;12.27;;;4.23;;
1140;SDS011;559;48.628;8.924;2023-10-08T14:10:03;10.63;;;5.13;;
1140;SDS011;559;48.628;8.924;2023-10-08T14:12:33;11.43;;;3.57;;
1140;SDS011;559;48.628;8.924;2023-10-08T14:15:01;7.57;;;3.37;;
1140;SDS011;559;48.628;8.924;2023-10-08T14:17:31;11.83;;;4.30;;
1140;SDS011;559;48.628;8.924;2023-10-08T14:20:08;17.70;;;4.37;;
1140;SDS011;559;48.628;8.924;2023-10-08T14:22:39;14.43;;;3.97;;
1140;SDS011;559;48.628;8.924;2023-10-08T14:25:07;17.03;;;4.10;;
1140;SDS011;559;48.628;8.924;2023-10-08T14:27:37;11.87;;;4.30;;
1140;SDS011;559;48.628;8.924;2023-10-08T14:30:07;8.00;;;3.90;;
1140;SDS011;559;48.628;8.924;2023-10-08T14:32:40;13.20;;;4.33;;
1140;SDS011;559;48.628;8.924;2023-10-08T14:35:11;10.43;;;4.00;;
1140;SDS011;559;48.628;8.924;2023-10-08T14:38:07;7.47;;;3.10;;
1140;SDS011;559;48.628;8.924;2023-10-08T14:40:51;11.03;;;4.20;;
1140;SDS011;559;48.628;8.924;2023-10-08T14:43:35;8.07;;;4.13;;
1140;SDS011;559;48.628;8.924;2023-10-08T14:46:04;10.90;;;3.90;;
1140;SDS011;559;48.628;8.924;2023-10-08T14:48:34;6.83;;;3.63;;
1140;SDS011;559;48.628;8.924;2023-10-08T14:51:02;11.37;;;3.50;;
1140;SDS011;559;48.628;8.924;2023-10-08T14:53:32;9.57;;;3.73;;
1140;SDS011;559;48.628;8.924;2023-10-08T14:55:59;10.33;;;4.60;;
1140;SDS011;559;48.628;8.924;2023-10-08T14:58:28;6.30;;;3.23;;
1140;SDS011;559;48.628;8.924;2023-10-08T15:00:55;6.30;;;3.10;;
1140;SDS011;559;48.628;8.924;2023-10-08T15:03:22;16.87;;;3.70;;
1140;SDS011;559;48.628;8.924;2023-10-08T15:05:52;8.33;;;3.90;;
1140;SDS011;559;48.628;8.924;2023-10-08T15:08:18;9.90;;;4.50;;
1140;SDS011;559;48.628;8.924;2023-10-08T15:10:44;10.97;;;4.10;;
1140;SDS011;559;48.628;8.924;2023-10-08T15:13:12;12.10;;;3.57;;
1140;SDS011;559;48.628;8.924;2023-10-08T15:15:40;12.93;;;3.33;;
1140;SDS011;559;48.628;8.924;2023-10-08T15:18:08;11.53;;;4.20;;
1140;SDS011;559;48.628;8.924;2023-10-08T15:20:38;11.57;;;4.57;;
1140;SDS011;559;48.628;8.924;2023-10-08T15:23:06;10.53;;;4.00;;
1140;SDS011;559;48.628;8.924;2023-10-08T15:25:36;9.17;;;3.87;;
1140;SDS011;559;48.628;8.924;2023-10-08T15:28:03;11.53;;;3.77;;
1140;SDS011;559;48.628;8.924;2023-10-08T15:30:30;9.90;;;4.40;;
1140;SDS011;559;48.628;8.924;2023-10-08T15:32:57;10.83;;;3.43;;
1140;SDS011;559;48.628;8.924;2023-10-08T15:35:24;9.87;;;3.47;;
1140;SDS011;559;48.628;8.924;2023-10-08T15:37:52;10.90;;;3.50;;
1140;SDS011;559;48.628;8.924;2023-10-08T15:40:20;10.10;;;4.20;;
1140;SDS011;559;48.628;8.924;2023-10-08T15:42:48;11.43;;;4.43;;
1140;SDS011;559;48.628;8.924;2023-10-08T15:45:16;7.50;;;5.20;;
1140;SDS011;559;48.628;8.924;2023-10-08T15:47:43;11.70;;;3.77;;
1140;SDS011;559;48.628;8.924;2023-10-08T15:50:12;8.37;;;3.40;;
1140;SDS011;559;48.628;8.924;2023-10-08T15:52:39;17.73;;;3.70;;
1140;SDS011;559;48.628;8.924;2023-10-08T15:55:07;6.57;;;3.20;;